Time;durP1;ratioP1;P1;durP2;ratioP2;P2;SDS_P1;SDS_P2;PMS_P1;PMS_P2;Temp;Humidity;BMP_temperature;BMP_pressure;BME280_temperature;BME280_humidity;BME280_pressure;Samples;Min_cycle;Max_cycle;Signal;HPM_P1;HPM_P2
2022/06/02 00:00:05;;;;;;;5.30;3.40;;;;;;;;;;5046452;28;20063;-68
2022/06/02 00:02:56;;;;;;;3.88;3.35;;;;;;;;;;5055990;28;20443;-68
2022/06/02 00:05:25;;;;;;;4.13;3.20;;;;;;;;;;5056243;28;20430;-68
2022/06/02 00:08:02;;;;;;;3.83;3.25;;;;;;;;;;5038472;28;20450;-68
2022/06/02 00:10:49;;;;;;;3.38;3.10;;;;;;;;;;5056225;28;20045;-68
2022/06/02 00:13:17;;;;;;;3.63;3.33;;;;;;;;;;5056018;28;20076;-68
2022/06/02 00:15:45;;;;;;;5.43;3.50;;;;;;;;;;5055602;28;20082;-68
2022/06/02 00:18:15;;;;;;;4.03;3.63;;;;;;;;;;5055729;28;20126;-68
2022/06/02 00:20:43;;;;;;;3.53;2.97;;;;;;;;;;5055465;28;20048;-68
2022/06/02 00:23:09;;;;;;;3.80;3.60;;;;;;;;;;5055259;28;20071;-68
2022/06/02 00:25:49;;;;;;;3.60;2.67;;;;;;;;;;5055312;28;20056;-68
2022/06/02 00:28:22;;;;;;;3.17;2.97;;;;;;;;;;5055265;28;20039;-69
2022/06/02 00:30:57;;;;;;;4.45;3.40;;;;;;;;;;5037353;28;20036;-68
2022/06/02 00:33:34;;;;;;;3.47;2.70;;;;;;;;;;5056109;28;20455;-69
2022/06/02 00:36:03;;;;;;;3.85;3.05;;;;;;;;;;5055140;28;20033;-69
2022/06/02 00:38:32;;;;;;;3.60;3.30;;;;;;;;;;5055527;28;20098;-69
2022/06/02 00:41:04;;;;;;;4.38;3.33;;;;;;;;;;5055192;28;20036;-69
2022/06/02 00:43:30;;;;;;;3.28;2.97;;;;;;;;;;5055133;28;20041;-69
2022/06/02 00:46:08;;;;;;;3.67;3.33;;;;;;;;;;5055009;28;20028;-69
2022/06/02 00:48:41;;;;;;;4.75;3.22;;;;;;;;;;5055130;28;20033;-70
2022/06/02 00:51:10;;;;;;;3.85;3.55;;;;;;;;;;5054959;28;20037;-70
2022/06/02 00:59:44;;;;;;;5.35;3.88;;;;;;;;;;5055015;28;20040;-70
2022/06/02 01:02:09;;;;;;;5.93;4.00;;;;;;;;;;5054647;28;20033;-70
2022/06/02 01:04:38;;;;;;;4.47;4.03;;;;;;;;;;5054530;28;20395;-70
2022/06/02 01:07:13;;;;;;;4.82;3.95;;;;;;;;;;5054691;28;20430;-70
2022/06/02 01:09:54;;;;;;;4.35;4.05;;;;;;;;;;5054668;28;20391;-70
2022/06/02 01:12:33;;;;;;;5.47;3.97;;;;;;;;;;5054356;28;20033;-69
2022/06/02 01:15:05;;;;;;;4.28;3.90;;;;;;;;;;5054618;28;20033;-70
2022/06/02 01:17:36;;;;;;;5.75;4.10;;;;;;;;;;5036463;28;20029;-69
2022/06/02 01:20:14;;;;;;;7.25;4.38;;;;;;;;;;5054383;28;20043;-69
2022/06/02 01:23:01;;;;;;;4.05;3.67;;;;;;;;;;5054297;28;20517;-69
2022/06/02 01:25:36;;;;;;;4.35;3.95;;;;;;;;;;5054237;28;20049;-69
2022/06/02 01:28:25;;;;;;;4.32;3.80;;;;;;;;;;5054154;28;20041;-68
2022/06/02 01:30:53;;;;;;;4.55;3.90;;;;;;;;;;5054271;28;20037;-70
2022/06/02 01:33:33;;;;;;;5.65;4.05;;;;;;;;;;5054199;28;20490;-70
2022/06/02 01:36:20;;;;;;;4.82;4.30;;;;;;;;;;5054047;28;20045;-70
2022/06/02 01:39:13;;;;;;;4.85;4.40;;;;;;;;;;5054130;28;20468;-70
2022/06/02 01:41:58;;;;;;;4.93;4.28;;;;;;;;;;5053956;28;20120;-70
2022/06/02 01:44:31;;;;;;;6.53;4.90;;;;;;;;;;5053861;28;20037;-70
2022/06/02 01:47:02;;;;;;;7.25;4.60;;;;;;;;;;5054005;28;20069;-71
2022/06/02 01:49:36;;;;;;;4.78;4.20;;;;;;;;;;5036190;28;20502;-71
2022/06/02 01:52:01;;;;;;;4.68;4.35;;;;;;;;;;5053830;28;20067;-71
2022/06/02 01:54:45;;;;;;;5.13;4.57;;;;;;;;;;5053767;28;20116;-70
2022/06/02 01:57:17;;;;;;;4.90;4.50;;;;;;;;;;5035932;28;20278;-70
2022/06/02 01:59:43;;;;;;;4.85;4.40;;;;;;;;;;5053674;28;20506;-68
2022/06/02 02:02:19;;;;;;;6.38;4.53;;;;;;;;;;5053666;28;20028;-68
2022/06/02 02:04:56;;;;;;;4.88;4.47;;;;;;;;;;5053883;28;20120;-68
2022/06/02 02:07:41;;;;;;;6.07;4.88;;;;;;;;;;5053639;28;20048;-69
2022/06/02 02:10:19;;;;;;;6.88;4.72;;;;;;;;;;5004346;28;20044;-69
2022/06/02 02:12:50;;;;;;;4.95;4.45;;;;;;;;;;5053670;28;20078;-69
2022/06/02 02:15:27;;;;;;;7.65;5.40;;;;;;;;;;5054071;28;20041;-69
2022/06/02 02:18:09;;;;;;;6.03;5.53;;;;;;;;;;5053604;28;20043;-70
2022/06/02 02:20:37;;;;;;;5.95;5.40;;;;;;;;;;5053421;28;20110;-70
2022/06/02 02:23:15;;;;;;;6.00;5.40;;;;;;;;;;5036179;28;20048;-69
2022/06/02 02:25:54;;;;;;;6.68;5.68;;;;;;;;;;5057586;28;20099;-69
2022/06/02 02:28:20;;;;;;;6.60;5.97;;;;;;;;;;5057788;28;20102;-69
2022/06/02 02:30:45;;;;;;;8.60;6.88;;;;;;;;;;5057583;28;20483;-69
2022/06/02 02:33:29;;;;;;;7.10;6.25;;;;;;;;;;5057427;28;20539;-69
2022/06/02 02:35:54;;;;;;;8.45;6.00;;;;;;;;;;5057400;28;20047;-70
2022/06/02 02:38:26;;;;;;;6.13;5.57;;;;;;;;;;5057692;28;20108;-70
2022/06/02 02:40:55;;;;;;;6.22;5.63;;;;;;;;;;5057313;28;20041;-70
2022/06/02 02:43:39;;;;;;;5.88;5.15;;;;;;;;;;5057239;28;20028;-70
2022/06/02 02:46:06;;;;;;;5.85;5.30;;;;;;;;;;5057462;28;20136;-70
2022/06/02 02:48:34;;;;;;;5.75;5.25;;;;;;;;;;5057346;28;20037;-70
2022/06/02 02:51:03;;;;;;;5.78;5.18;;;;;;;;;;5057151;28;20065;-71
2022/06/02 02:53:34;;;;;;;6.13;5.38;;;;;;;;;;5057547;28;20079;-71
2022/06/02 02:56:21;;;;;;;6.18;5.57;;;;;;;;;;5057195;28;20075;-71
2022/06/02 02:59:06;;;;;;;5.78;5.28;;;;;;;;;;5057313;28;20048;-71
2022/06/02 03:01:42;;;;;;;7.15;5.47;;;;;;;;;;5056815;28;20049;-71
2022/06/02 03:04:10;;;;;;;7.90;5.57;;;;;;;;;;5056992;28;20069;-71
2022/06/02 03:06:37;;;;;;;6.57;5.93;;;;;;;;;;5056985;28;20052;-71
2022/06/02 03:09:08;;;;;;;5.75;5.25;;;;;;;;;;5056677;28;20582;-71
2022/06/02 03:11:41;;;;;;;6.00;5.25;;;;;;;;;;5056971;28;20033;-71
2022/06/02 03:14:12;;;;;;;6.28;5.60;;;;;;;;;;5056719;28;20387;-71
2022/06/02 03:16:38;;;;;;;5.50;5.00;;;;;;;;;;5056774;28;20052;-71
2022/06/02 03:19:22;;;;;;;5.90;5.40;;;;;;;;;;5056658;28;20029;-71
2022/06/02 03:22:06;;;;;;;6.22;5.72;;;;;;;;;;5056908;28;20045;-74
2022/06/02 03:24:37;;;;;;;6.47;5.45;;;;;;;;;;5057018;28;20049;-71
2022/06/02 03:27:18;;;;;;;5.95;5.32;;;;;;;;;;5038990;28;20507;-70
2022/06/02 03:29:44;;;;;;;;;;;;;;;;;;5057102;28;20040;-71
2022/06/02 03:32:21;;;;;;;6.88;5.85;;;;;;;;;;5056665;28;19905;-70
2022/06/02 03:34:47;;;;;;;6.28;5.63;;;;;;;;;;5056644;28;20043;-71
2022/06/02 03:37:22;;;;;;;6.22;5.00;;;;;;;;;;5056603;28;20108;-70
2022/06/02 03:39:54;;;;;;;6.88;5.32;;;;;;;;;;5056758;28;20041;-70
2022/06/02 03:42:20;;;;;;;5.88;4.72;;;;;;;;;;5056151;28;20048;-70
2022/06/02 03:44:54;;;;;;;5.55;5.00;;;;;;;;;;5056171;28;20036;-70
2022/06/02 03:47:28;;;;;;;5.10;4.70;;;;;;;;;;5056083;28;20440;-76
2022/06/02 03:49:56;;;;;;;5.25;4.85;;;;;;;;;;5056711;28;20045;-75
2022/06/02 03:52:44;;;;;;;5.45;5.05;;;;;;;;;;5056798;28;20060;-75
2022/06/02 03:55:29;;;;;;;5.43;4.75;;;;;;;;;;5056336;28;20128;-74
2022/06/02 03:57:57;;;;;;;5.32;4.80;;;;;;;;;;5056187;28;20468;-74
2022/06/02 04:00:31;;;;;;;5.60;5.10;;;;;;;;;;5056377;28;20083;-74
2022/06/02 04:03:05;;;;;;;5.40;5.00;;;;;;;;;;5056065;28;20049;-73
2022/06/02 04:05:33;;;;;;;5.30;4.90;;;;;;;;;;5055983;28;20086;-74
2022/06/02 04:08:04;;;;;;;5.22;4.78;;;;;;;;;;5056396;28;20123;-74
2022/06/02 04:10:37;;;;;;;7.00;5.00;;;;;;;;;;5057512;28;20487;-74
2022/06/02 04:13:39;;;;;;;5.22;4.72;;;;;;;;;;5056366;28;20041;-74
2022/06/02 04:16:20;;;;;;;5.07;4.78;;;;;;;;;;5055544;28;20033;-75
2022/06/02 04:18:54;;;;;;;5.45;5.05;;;;;;;;;;5055676;28;20116;-74
2022/06/02 04:21:47;;;;;;;5.90;5.40;;;;;;;;;;5055249;28;20037;-74
2022/06/02 04:24:12;;;;;;;5.78;5.05;;;;;;;;;;5055209;28;20033;-76
2022/06/02 04:26:56;;;;;;;5.65;5.18;;;;;;;;;;5054670;28;20021;-74
2022/06/02 04:29:49;;;;;;;6.32;5.72;;;;;;;;;;5054938;28;20128;-74
2022/06/02 04:32:22;;;;;;;6.22;5.72;;;;;;;;;;5055213;28;20052;-74
2022/06/02 04:35:00;;;;;;;6.05;5.55;;;;;;;;;;5055172;28;20044;-73
2022/06/02 04:37:31;;;;;;;7.50;6.85;;;;;;;;;;5054665;28;20041;-74
2022/06/02 04:40:00;;;;;;;7.57;6.97;;;;;;;;;;5054453;28;20118;-75
2022/06/02 04:42:31;;;;;;;7.15;5.93;;;;;;;;;;5053606;28;20113;-74
2022/06/02 04:45:03;;;;;;;4.50;4.20;;;;;;;;;;5053356;28;20115;-73
2022/06/02 04:47:48;;;;;;;5.00;4.60;;;;;;;;;;5051841;28;20387;-73
2022/06/02 04:50:25;;;;;;;3.97;3.67;;;;;;;;;;5051877;28;20033;-73
2022/06/02 04:53:03;;;;;;;3.95;3.65;;;;;;;;;;5052131;28;20044;-73
2022/06/02 04:55:34;;;;;;;3.38;3.17;;;;;;;;;;5051901;28;20472;-73
2022/06/02 05:01:35;;;;;;;3.15;2.95;;;;;;;;;;5055003;28;20131;-73
2022/06/02 05:07:48;;;;;;;3.40;3.20;;;;;;;;;;5054861;28;20028;-73
2022/06/02 05:18:24;;;;;;;3.55;2.85;;;;;;;;;;5054728;28;20119;-73
2022/06/02 05:24:37;;;;;;;4.78;2.75;;;;;;;;;;5054397;28;20215;-73
2022/06/02 05:30:38;;;;;;;4.47;3.05;;;;;;;;;;5054466;28;20031;-73
2022/06/02 05:36:41;;;;;;;3.22;3.03;;;;;;;;;;5054104;28;20478;-73
2022/06/02 05:42:48;;;;;;;3.13;2.92;;;;;;;;;;5054253;28;20148;-73
2022/06/02 05:56:47;;;;;;;3.67;3.38;;;;;;;;;;4992827;28;20548;-73
2022/06/02 05:59:37;;;;;;;3.63;3.33;;;;;;;;;;4991907;28;20038;-73
2022/06/02 06:05:37;;;;;;;2.83;2.63;;;;;;;;;;4992321;28;20121;-73
2022/06/02 06:11:42;;;;;;;2.83;2.63;;;;;;;;;;4992507;28;20037;-73
2022/06/02 06:26:29;;;;;;;2.78;2.58;;;;;;;;;;5053733;28;20107;-73
2022/06/02 06:29:14;;;;;;;2.72;2.55;;;;;;;;;;5053921;28;20108;-73
2022/06/02 06:31:42;;;;;;;3.35;2.92;;;;;;;;;;5053937;28;20094;-73
2022/06/02 06:34:31;;;;;;;2.58;2.38;;;;;;;;;;5053648;28;20039;-73
2022/06/02 06:37:00;;;;;;;2.38;2.25;;;;;;;;;;5053472;28;20045;-73
2022/06/02 06:39:37;;;;;;;2.40;2.30;;;;;;;;;;5053587;28;20033;-73
2022/06/02 06:42:21;;;;;;;2.35;2.25;;;;;;;;;;5053586;28;20040;-73
2022/06/02 06:44:55;;;;;;;2.75;2.55;;;;;;;;;;5053500;28;20041;-73
2022/06/02 06:50:56;;;;;;;3.33;2.33;;;;;;;;;;5053494;28;20498;-73
2022/06/02 06:57:05;;;;;;;2.53;2.33;;;;;;;;;;5053476;28;20059;-73
2022/06/02 07:03:25;;;;;;;2.97;2.75;;;;;;;;;;5053116;28;20398;-73
2022/06/02 07:09:49;;;;;;;4.30;3.90;;;;;;;;;;5054493;28;20443;-73
2022/06/02 07:20:14;;;;;;;3.45;3.08;;;;;;;;;;5056954;28;20028;-73
2022/06/02 07:33:52;;;;;;;2.10;2.00;;;;;;;;;;5056666;28;20113;-73
2022/06/02 07:40:02;;;;;;;3.97;2.30;;;;;;;;;;5056539;28;20024;-73
2022/06/02 07:46:21;;;;;;;2.53;2.33;;;;;;;;;;5056466;28;20082;-73
2022/06/02 07:52:31;;;;;;;3.03;2.65;;;;;;;;;;5056342;28;20408;-73
2022/06/02 07:58:43;;;;;;;4.47;3.70;;;;;;;;;;5056201;28;20434;-73
2022/06/02 08:04:55;;;;;;;4.00;3.72;;;;;;;;;;5055595;28;20036;-73
2022/06/02 08:07:23;;;;;;;3.95;3.22;;;;;;;;;;5037636;28;20137;-73
2022/06/02 08:09:52;;;;;;;3.13;2.92;;;;;;;;;;5055504;28;20099;-73
2022/06/02 08:12:32;;;;;;;3.50;3.05;;;;;;;;;;5055459;28;20052;-73
2022/06/02 08:22:30;;;;;;;4.18;3.83;;;;;;;;;;5054890;28;20023;-73
2022/06/02 08:28:36;;;;;;;3.00;2.80;;;;;;;;;;5055677;28;20032;-72
2022/06/02 08:34:37;;;;;;;3.45;2.88;;;;;;;;;;5055558;28;20036;-75
2022/06/02 08:40:44;;;;;;;3.30;2.60;;;;;;;;;;5055461;28;20123;-75
2022/06/02 08:46:45;;;;;;;2.83;2.63;;;;;;;;;;5055305;28;20075;-75
2022/06/02 08:52:49;;;;;;;2.10;2.00;;;;;;;;;;5055166;28;20032;-72
2022/06/02 08:59:08;;;;;;;4.35;2.10;;;;;;;;;;5055072;28;20130;-72
2022/06/02 09:05:15;;;;;;;2.72;2.25;;;;;;;;;;5054629;28;20087;-72
2022/06/02 09:11:34;;;;;;;4.95;1.85;;;;;;;;;;5054819;28;20114;-73
2022/06/02 09:21:22;;;;;;;2.10;1.92;;;;;;;;;;5054672;28;20502;-73
2022/06/02 09:27:42;;;;;;;3.38;2.30;;;;;;;;;;5054306;28;20099;-73
2022/06/02 09:33:52;;;;;;;2.42;1.77;;;;;;;;;;5054289;28;20552;-75
2022/06/02 09:40:02;;;;;;;3.53;2.67;;;;;;;;;;5054343;28;20562;-72
2022/06/02 09:46:21;;;;;;;2.42;2.28;;;;;;;;;;5054223;28;20090;-72
2022/06/02 09:52:29;;;;;;;2.33;2.22;;;;;;;;;;5054150;28;20506;-72
2022/06/02 09:58:49;;;;;;;2.10;2.00;;;;;;;;;;5054086;28;20031;-72
2022/06/02 10:04:52;;;;;;;3.17;2.13;;;;;;;;;;5053777;28;20039;-72
2022/06/02 10:11:08;;;;;;;1.83;1.73;;;;;;;;;;5053895;28;20027;-72
2022/06/02 10:21:18;;;;;;;3.30;2.10;;;;;;;;;;5053802;28;20087;-73
2022/06/02 10:34:52;;;;;;;2.17;1.98;;;;;;;;;;4992496;28;20519;-73
2022/06/02 10:44:44;;;;;;;2.35;1.70;;;;;;;;;;4974344;28;20037;-73
2022/06/02 10:47:44;;;;;;;1.90;1.80;;;;;;;;;;4976470;28;20505;-74
2022/06/02 10:53:57;;;;;;;2.95;1.70;;;;;;;;;;4976629;28;20161;-73
2022/06/02 11:00:07;;;;;;;3.15;1.63;;;;;;;;;;4976266;28;20101;-73
2022/06/02 11:06:25;;;;;;;2.45;1.73;;;;;;;;;;5015553;28;20121;-73
2022/06/02 11:09:15;;;;;;;3.28;1.92;;;;;;;;;;5015714;28;20126;-73
2022/06/02 11:41:39;;;;;;;1.30;1.30;;;;;;;;;;4975773;28;20063;-73
2022/06/02 11:47:47;;;;;;;1.40;1.30;;;;;;;;;;4975378;28;20029;-73
2022/06/02 11:53:48;;;;;;;1.55;1.45;;;;;;;;;;5014657;28;20037;-73
2022/06/02 11:59:50;;;;;;;1.60;1.50;;;;;;;;;;5014459;28;20028;-73
2022/06/02 12:02:27;;;;;;;1.52;1.15;;;;;;;;;;5014472;28;20046;-74
2022/06/02 12:08:31;;;;;;;1.17;1.17;;;;;;;;;;5056065;28;20027;-73
2022/06/02 12:11:23;;;;;;;1.73;1.63;;;;;;;;;;5055637;28;20087;-73
2022/06/02 12:13:48;;;;;;;2.05;1.95;;;;;;;;;;5055456;28;20045;-73
2022/06/02 12:16:13;;;;;;;2.73;1.43;;;;;;;;;;5054710;28;20029;-73
2022/06/02 12:18:57;;;;;;;1.70;1.60;;;;;;;;;;5054703;28;20275;-73
2022/06/02 12:25:30;;;;;;;1.40;1.30;;;;;;;;;;5055410;28;20052;-74
2022/06/02 12:31:46;;;;;;;1.70;1.60;;;;;;;;;;5055657;28;20167;-73
2022/06/02 12:37:53;;;;;;;1.50;1.40;;;;;;;;;;5055278;28;20032;-74
2022/06/02 12:58:26;;;;;;;1.23;1.13;;;;;;;;;;4993439;28;20098;-74
2022/06/02 13:01:06;;;;;;;1.30;1.30;;;;;;;;;;4977377;28;20062;-74
2022/06/02 13:03:49;;;;;;;1.30;1.20;;;;;;;;;;4992923;28;20042;-74
2022/06/02 13:06:20;;;;;;;1.13;1.08;;;;;;;;;;4992947;28;20077;-73
2022/06/02 13:08:48;;;;;;;1.67;1.20;;;;;;;;;;4992563;28;20031;-73
2022/06/02 13:11:37;;;;;;;1.50;1.20;;;;;;;;;;4992798;28;20037;-74
2022/06/02 13:14:02;;;;;;;1.38;1.30;;;;;;;;;;4992798;28;20062;-74
2022/06/02 13:16:34;;;;;;;2.80;2.47;;;;;;;;;;4993041;28;20113;-74
2022/06/02 13:19:17;;;;;;;1.60;1.50;;;;;;;;;;5054285;28;20048;-74
2022/06/02 13:22:04;;;;;;;1.40;1.30;;;;;;;;;;5054058;28;20447;-75
2022/06/02 13:24:48;;;;;;;1.23;1.00;;;;;;;;;;5054070;28;20045;-74
2022/06/02 13:27:17;;;;;;;1.80;1.20;;;;;;;;;;5054149;28;20116;-74
2022/06/02 13:29:57;;;;;;;1.02;1.02;;;;;;;;;;5053777;28;20115;-73
2022/06/02 13:32:29;;;;;;;1.23;1.10;;;;;;;;;;5053731;28;20041;-73
2022/06/02 13:35:14;;;;;;;1.50;1.20;;;;;;;;;;5053896;28;20499;-73
2022/06/02 13:37:51;;;;;;;1.45;1.20;;;;;;;;;;5035888;28;20403;-73
2022/06/02 13:40:33;;;;;;;3.63;1.33;;;;;;;;;;5053859;28;20125;-76
2022/06/02 13:43:19;;;;;;;0.90;0.90;;;;;;;;;;5053800;28;20076;-74
2022/06/02 13:45:59;;;;;;;0.98;0.82;;;;;;;;;;5053645;28;20051;-75
2022/06/02 13:48:50;;;;;;;0.90;0.90;;;;;;;;;;5053908;28;20366;-73
2022/06/02 13:51:51;;;;;;;1.25;1.15;;;;;;;;;;5015769;28;20403;-74
2022/06/02 13:57:32;;;;;;;1.90;1.10;;;;;;;;;;5048710;28;20391;-74
2022/06/02 14:00:07;;;;;;;1.70;1.10;;;;;;;;;;5054058;28;20460;-74
2022/06/02 14:02:57;;;;;;;0.90;0.90;;;;;;;;;;5053419;28;20087;-73
2022/06/02 14:05:41;;;;;;;1.27;1.00;;;;;;;;;;5036060;28;20084;-72
2022/06/02 14:08:34;;;;;;;1.00;1.00;;;;;;;;;;5053175;28;20073;-73
2022/06/02 14:11:14;;;;;;;0.90;0.90;;;;;;;;;;5053803;28;20083;-73
2022/06/02 14:17:21;;;;;;;1.02;1.02;;;;;;;;;;5053833;28;20498;-73
2022/06/02 14:38:35;;;;;;;1.60;0.73;;;;;;;;;;4992132;28;20056;-73
2022/06/02 14:44:42;;;;;;;0.70;0.60;;;;;;;;;;4991942;28;20073;-73
2022/06/02 14:50:44;;;;;;;0.70;0.70;;;;;;;;;;4992059;28;20069;-73
2022/06/02 15:00:04;;;;;;;1.63;1.02;;;;;;;;;;4992209;28;20045;-73
2022/06/02 15:16:38;;;;;;;0.98;0.98;;;;;;;;;;4953123;29;20410;-73
2022/06/02 15:55:10;;;;;;;0.85;0.82;;;;;;;;;;5014641;28;20444;-73
2022/06/02 16:15:46;;;;;;;1.85;1.40;;;;;;;;;;4917788;29;20115;-73
2022/06/02 16:21:51;;;;;;;1.40;1.30;;;;;;;;;;4936385;29;20064;-73
2022/06/02 16:28:04;;;;;;;2.30;2.08;;;;;;;;;;4936377;29;20171;-73
2022/06/02 16:30:45;;;;;;;1.90;1.60;;;;;;;;;;4936755;29;20122;-73
2022/06/02 16:33:15;;;;;;;1.52;1.42;;;;;;;;;;4970058;28;20038;-73
2022/06/02 16:35:41;;;;;;;;;;;;;;;;;;5003985;28;20068;-73
2022/06/02 16:38:12;;;;;;;1.45;0.90;;;;;;;;;;4998472;28;19960;-72
2022/06/02 16:40:41;;;;;;;0.90;0.90;;;;;;;;;;5022662;28;20041;-72
2022/06/02 16:43:16;;;;;;;1.27;1.17;;;;;;;;;;5034311;28;20040;-72
2022/06/02 16:45:48;;;;;;;0.90;0.90;;;;;;;;;;5034061;28;20453;-73
2022/06/02 16:48:23;;;;;;;0.80;0.80;;;;;;;;;;5034132;28;20036;-72
2022/06/02 16:51:07;;;;;;;0.80;0.80;;;;;;;;;;5034095;28;20038;-72
2022/06/02 16:57:07;;;;;;;0.80;0.80;;;;;;;;;;5035232;28;20028;-72
2022/06/02 17:03:26;;;;;;;1.90;1.77;;;;;;;;;;5035152;28;20033;-71
2022/06/02 17:09:42;;;;;;;0.95;0.95;;;;;;;;;;5036971;28;20020;-71
2022/06/02 17:12:10;;;;;;;1.45;1.02;;;;;;;;;;5037547;28;20060;-71
2022/06/02 17:14:54;;;;;;;3.28;1.17;;;;;;;;;;5035241;28;20116;-71
2022/06/02 17:20:58;;;;;;;1.60;1.50;;;;;;;;;;5034786;28;20025;-71
2022/06/02 17:27:35;;;;;;;1.75;1.35;;;;;;;;;;5044794;28;20408;-71
2022/06/02 17:30:20;;;;;;;0.98;0.98;;;;;;;;;;5042004;28;20116;-71
2022/06/02 17:33:04;;;;;;;1.55;1.45;;;;;;;;;;5035006;28;20049;-71
2022/06/02 17:35:42;;;;;;;2.70;2.47;;;;;;;;;;5034938;28;20061;-71
2022/06/02 17:38:26;;;;;;;1.80;1.70;;;;;;;;;;5053607;28;20382;-71
2022/06/02 17:40:57;;;;;;;2.28;1.60;;;;;;;;;;5054125;28;20044;-71
2022/06/02 17:43:31;;;;;;;1.70;1.30;;;;;;;;;;5054489;28;20045;-71
2022/06/02 17:46:06;;;;;;;1.50;1.05;;;;;;;;;;5054315;28;20064;-71
2022/06/02 17:48:51;;;;;;;1.10;1.10;;;;;;;;;;5054393;28;20065;-72
2022/06/02 17:58:45;;;;;;;1.63;1.52;;;;;;;;;;5054088;28;20055;-72
2022/06/02 18:04:52;;;;;;;3.95;2.58;;;;;;;;;;5053833;28;20076;-72
2022/06/02 18:11:09;;;;;;;12.10;9.55;;;;;;;;;;5053945;28;20426;-72
2022/06/02 18:17:28;;;;;;;86.28;42.58;;;;;;;;;;5053854;28;20552;-72
2022/06/02 18:23:37;;;;;;;8.15;7.07;;;;;;;;;;5053779;28;20032;-71
2022/06/02 18:56:05;;;;;;;4.72;4.18;;;;;;;;;;4992270;28;20033;-72
2022/06/02 19:02:24;;;;;;;11.45;7.22;;;;;;;;;;4991917;28;20408;-72
2022/06/02 20:30:32;;;;;;;42.67;11.15;;;;;;;;;;5071874;28;20035;-74
2022/06/02 20:33:04;;;;;;;38.15;12.20;;;;;;;;;;5095402;28;20089;-73
2022/06/02 20:35:34;;;;;;;29.73;9.73;;;;;;;;;;5095458;28;20111;-71
2022/06/02 20:38:23;;;;;;;16.38;6.95;;;;;;;;;;5077722;28;20027;-71
2022/06/02 20:41:01;;;;;;;36.17;13.10;;;;;;;;;;5082921;28;20182;-72
2022/06/02 20:43:26;;;;;;;19.58;8.13;;;;;;;;;;5095589;28;20040;-72
2022/06/02 20:46:10;;;;;;;21.10;8.68;;;;;;;;;;5095737;28;20048;-72
2022/06/02 20:48:39;;;;;;;17.75;7.75;;;;;;;;;;5077872;28;20123;-72
2022/06/02 20:51:14;;;;;;;7.63;4.25;;;;;;;;;;5095455;28;20063;-72
2022/06/02 20:53:45;;;;;;;3.75;2.80;;;;;;;;;;5095068;28;20479;-72
2022/06/02 20:56:13;;;;;;;6.22;2.28;;;;;;;;;;5095326;28;20027;-73
2022/06/02 20:58:38;;;;;;;2.78;2.58;;;;;;;;;;5095482;28;20032;-72
2022/06/02 21:01:14;;;;;;;2.30;2.20;;;;;;;;;;5095299;28;20115;-72
2022/06/02 21:03:48;;;;;;;11.18;5.85;;;;;;;;;;5095336;28;20477;-72
2022/06/02 21:06:18;;;;;;;7.63;3.50;;;;;;;;;;5077067;28;20036;-72
2022/06/02 21:09:07;;;;;;;4.55;2.70;;;;;;;;;;5095587;28;20038;-72
2022/06/02 21:11:34;;;;;;;3.92;3.08;;;;;;;;;;5094779;28;20071;-72
2022/06/02 21:14:02;;;;;;;3.97;3.15;;;;;;;;;;5095001;28;20024;-72
2022/06/02 21:16:40;;;;;;;3.17;2.28;;;;;;;;;;5094909;28;20043;-72
2022/06/02 21:19:19;;;;;;;2.20;2.08;;;;;;;;;;5094699;28;20111;-72
2022/06/02 21:22:04;;;;;;;3.40;2.42;;;;;;;;;;5094567;28;20513;-72
2022/06/02 21:24:30;;;;;;;2.58;2.03;;;;;;;;;;5094652;28;20134;-72
2022/06/02 21:26:58;;;;;;;3.10;2.78;;;;;;;;;;5094983;28;20103;-72
2022/06/02 21:29:26;;;;;;;2.90;2.70;;;;;;;;;;5094160;28;20098;-72
2022/06/02 21:31:53;;;;;;;4.97;3.70;;;;;;;;;;5059296;28;20029;-72
2022/06/02 21:34:18;;;;;;;4.22;3.25;;;;;;;;;;5073581;28;20386;-71
2022/06/02 21:36:51;;;;;;;5.38;4.88;;;;;;;;;;5074388;28;20059;-71
2022/06/02 21:39:26;;;;;;;47.88;37.60;;;;;;;;;;5074149;28;20115;-71
2022/06/02 21:41:52;;;;;;;24.27;19.98;;;;;;;;;;5073647;28;20039;-71
2022/06/02 21:44:20;;;;;;;6.55;6.05;;;;;;;;;;5073766;28;20047;-72
2022/06/02 21:46:51;;;;;;;8.77;7.97;;;;;;;;;;5073197;28;20037;-72
2022/06/02 21:49:20;;;;;;;12.05;10.75;;;;;;;;;;5073692;28;20025;-71
2022/06/02 21:51:54;;;;;;;11.45;10.18;;;;;;;;;;5074213;28;20108;-71
2022/06/02 21:54:36;;;;;;;7.57;6.85;;;;;;;;;;5074196;28;20036;-71
2022/06/02 21:57:06;;;;;;;52.00;46.75;;;;;;;;;;5056162;28;20388;-72
2022/06/02 21:59:31;;;;;;;63.50;56.00;;;;;;;;;;5074138;28;20447;-71
2022/06/02 22:02:02;;;;;;;65.80;56.28;;;;;;;;;;5073442;28;20266;-71
2022/06/02 22:04:33;;;;;;;57.15;47.70;;;;;;;;;;5073717;28;20443;-72
2022/06/02 22:07:17;;;;;;;18.10;16.08;;;;;;;;;;5073499;28;20391;-71
2022/06/02 22:09:54;;;;;;;14.23;12.77;;;;;;;;;;5073749;28;20048;-71
2022/06/02 22:12:28;;;;;;;17.33;15.45;;;;;;;;;;5073654;28;20032;-71
2022/06/02 22:15:01;;;;;;;12.48;10.73;;;;;;;;;;5073485;28;20119;-71
2022/06/02 22:17:40;;;;;;;14.90;11.00;;;;;;;;;;5073505;28;20047;-71
2022/06/02 22:20:09;;;;;;;12.90;11.60;;;;;;;;;;5073937;28;20033;-72
2022/06/02 22:22:36;;;;;;;16.30;14.70;;;;;;;;;;5073435;28;20120;-72
2022/06/02 22:25:05;;;;;;;7.25;6.65;;;;;;;;;;5073451;28;20044;-72
2022/06/02 22:27:45;;;;;;;5.30;4.72;;;;;;;;;;5073587;28;20455;-71
2022/06/02 22:30:26;;;;;;;6.43;3.85;;;;;;;;;;5076716;28;20032;-73
2022/06/02 22:32:53;;;;;;;4.47;4.07;;;;;;;;;;5075499;28;20089;-73
2022/06/02 22:35:21;;;;;;;4.20;3.90;;;;;;;;;;5093965;28;20462;-73
2022/06/02 22:38:07;;;;;;;4.82;3.92;;;;;;;;;;5075631;28;20040;-75
2022/06/02 22:40:51;;;;;;;4.28;3.92;;;;;;;;;;5095030;28;20036;-75
2022/06/02 22:43:22;;;;;;;3.83;3.40;;;;;;;;;;5097640;28;20032;-74
2022/06/02 22:45:48;;;;;;;3.97;3.50;;;;;;;;;;5097623;28;20126;-72
2022/06/02 22:48:32;;;;;;;3.70;3.40;;;;;;;;;;5097859;28;20107;-73
2022/06/02 22:51:08;;;;;;;4.18;3.78;;;;;;;;;;5098080;28;20032;-74
2022/06/02 22:53:33;;;;;;;4.70;3.33;;;;;;;;;;5098014;28;20036;-73
2022/06/02 22:56:02;;;;;;;7.55;4.05;;;;;;;;;;5080068;28;20447;-73
2022/06/02 22:58:30;;;;;;;4.80;3.80;;;;;;;;;;5097701;28;20040;-72
2022/06/02 23:01:04;;;;;;;3.50;3.20;;;;;;;;;;5097412;28;20251;-72
2022/06/02 23:03:36;;;;;;;7.25;3.65;;;;;;;;;;5097308;28;20560;-72
2022/06/02 23:06:13;;;;;;;4.72;3.33;;;;;;;;;;5097395;28;20074;-72
2022/06/02 23:08:58;;;;;;;3.03;2.83;;;;;;;;;;5097284;28;20098;-72
2022/06/02 23:11:43;;;;;;;5.07;2.65;;;;;;;;;;5097245;28;20569;-72
2022/06/02 23:14:28;;;;;;;3.67;2.72;;;;;;;;;;5079099;28;20075;-72
2022/06/02 23:17:02;;;;;;;2.80;2.60;;;;;;;;;;5097211;28;20043;-72
2022/06/02 23:19:31;;;;;;;3.28;2.90;;;;;;;;;;5097187;28;20035;-72
2022/06/02 23:21:56;;;;;;;3.55;3.17;;;;;;;;;;5097091;28;20038;-73
2022/06/02 23:24:44;;;;;;;5.05;3.40;;;;;;;;;;5097311;28;20044;-73
2022/06/02 23:27:12;;;;;;;5.95;3.05;;;;;;;;;;5097207;28;20440;-73
2022/06/02 23:30:01;;;;;;;6.53;3.00;;;;;;;;;;5096773;28;20020;-73
2022/06/02 23:32:27;;;;;;;3.35;2.92;;;;;;;;;;5076612;28;20036;-72
2022/06/02 23:35:14;;;;;;;3.05;2.80;;;;;;;;;;5076548;28;20045;-72
2022/06/02 23:37:49;;;;;;;3.28;2.65;;;;;;;;;;5076969;28;20040;-74
2022/06/02 23:40:14;;;;;;;3.17;2.88;;;;;;;;;;5076538;28;20040;-71
2022/06/02 23:46:05;;;;;;;2.80;2.60;;;;;;;;;;5076249;28;20122;-72
2022/06/02 23:48:37;;;;;;;3.00;2.80;;;;;;;;;;5065650;28;20128;-72
2022/06/02 23:51:05;;;;;;;3.42;3.20;;;;;;;;;;5076294;28;20047;-73
2022/06/02 23:53:39;;;;;;;2.90;2.67;;;;;;;;;;5076513;28;20025;-72
2022/06/02 23:56:23;;;;;;;2.47;2.35;;;;;;;;;;5076248;28;20122;-72
2022/06/02 23:59:07;;;;;;;2.88;2.38;;;;;;;;;;5075966;28;20041;-72
